createdAt,value
2019-05-13T00:01:20.902Z,18.20
2019-05-13T00:03:54.087Z,18.90
2019-05-13T00:06:24.307Z,17.85
2019-05-13T00:08:55.621Z,24.15
2019-05-13T00:11:26.756Z,24.77
2019-05-13T00:13:57.848Z,27.67
2019-05-13T00:16:28.563Z,37.10
2019-05-13T00:18:59.762Z,36.83
2019-05-13T00:21:30.982Z,26.07
2019-05-13T00:24:04.099Z,24.35
2019-05-13T00:26:35.214Z,20.05
2019-05-13T00:29:06.202Z,19.10
2019-05-13T00:31:37.280Z,17.85
2019-05-13T00:34:08.173Z,18.25
2019-05-13T00:36:38.935Z,17.92
2019-05-13T00:39:10.520Z,17.48
2019-05-13T00:41:41.202Z,19.37
2019-05-13T00:44:14.118Z,19.20
2019-05-13T00:46:44.601Z,17.85
2019-05-13T00:49:15.405Z,17.37
2019-05-13T00:51:46.217Z,17.62
2019-05-13T00:54:17.061Z,17.00
2019-05-13T00:56:47.727Z,17.23
2019-05-13T00:59:18.638Z,16.87
2019-05-13T01:01:49.516Z,15.65
2019-05-13T01:04:20.297Z,16.27
2019-05-13T01:06:53.596Z,16.95
2019-05-13T01:09:23.816Z,15.85
2019-05-13T01:11:54.779Z,17.42
2019-05-13T01:14:25.834Z,16.25
2019-05-13T01:16:56.810Z,17.23
2019-05-13T01:19:27.782Z,17.70
2019-05-13T01:21:58.587Z,15.50
2019-05-13T01:24:30.168Z,16.67
2019-05-13T01:27:03.546Z,17.50
2019-05-13T01:29:34.362Z,18.23
2019-05-13T01:32:05.253Z,17.30
2019-05-13T01:34:36.223Z,16.85
2019-05-13T01:37:07.147Z,17.27
2019-05-13T01:39:38.083Z,15.98
2019-05-13T01:42:08.875Z,15.43
2019-05-13T01:44:43.639Z,15.05
2019-05-13T01:47:13.571Z,14.53
2019-05-13T01:49:46.640Z,15.68
2019-05-13T01:52:20.722Z,16.65
2019-05-13T01:54:54.374Z,13.65
2019-05-13T01:57:25.351Z,15.58
2019-05-13T01:59:56.144Z,15.32
2019-05-13T02:02:27.045Z,14.05
2019-05-13T02:05:03.776Z,13.20
2019-05-13T02:07:34.291Z,12.75
2019-05-13T02:10:07.946Z,13.08
2019-05-13T02:12:39.017Z,13.62
2019-05-13T02:15:10.183Z,13.35
2019-05-13T02:17:41.164Z,14.53
2019-05-13T02:20:14.714Z,13.03
2019-05-13T02:22:44.750Z,14.73
2019-05-13T02:25:15.630Z,12.93
2019-05-13T02:27:46.703Z,13.28
2019-05-13T02:30:18.367Z,13.70
2019-05-13T02:32:52.919Z,12.68
2019-05-13T02:35:23.123Z,12.93
2019-05-13T02:38:12.421Z,13.22
2019-05-13T02:40:26.315Z,13.13
2019-05-13T02:42:57.322Z,12.45
2019-05-13T02:45:28.374Z,12.10
2019-05-13T02:47:59.203Z,11.57
2019-05-13T02:50:33.519Z,12.20
2019-05-13T02:53:02.556Z,10.45
2019-05-13T02:55:33.441Z,11.08
2019-05-13T02:58:04.099Z,12.03
2019-05-13T03:00:35.011Z,11.53
2019-05-13T03:03:06.051Z,11.48
2019-05-13T03:05:36.816Z,10.80
2019-05-13T03:08:07.611Z,10.65
2019-05-13T03:10:38.626Z,11.00
2019-05-13T03:13:12.623Z,11.10
2019-05-13T03:15:43.921Z,9.40
2019-05-13T03:18:14.920Z,10.20
2019-05-13T03:20:45.591Z,10.88
2019-05-13T03:23:16.474Z,11.03
2019-05-13T03:25:47.370Z,10.53
2019-05-13T03:28:18.354Z,10.65
2019-05-13T03:30:49.036Z,10.70
2019-05-13T03:33:26.186Z,10.53
2019-05-13T03:35:55.847Z,10.45
2019-05-13T03:38:25.370Z,8.95
2019-05-13T03:40:56.570Z,10.00
2019-05-13T03:43:27.464Z,9.75
2019-05-13T03:45:58.387Z,10.20
2019-05-13T03:48:29.346Z,9.38
2019-05-13T03:51:02.774Z,9.70
2019-05-13T03:53:32.790Z,8.25
2019-05-13T03:56:04.208Z,9.08
2019-05-13T03:58:35.409Z,9.15
2019-05-13T04:01:06.438Z,8.33
2019-05-13T04:03:38.660Z,8.25
2019-05-13T04:06:13.128Z,8.15
2019-05-13T04:08:43.381Z,7.87
2019-05-13T04:11:14.196Z,8.05
2019-05-13T04:13:44.976Z,8.25
2019-05-13T04:16:15.663Z,8.68
2019-05-13T04:18:46.303Z,8.58
2019-05-13T04:21:17.097Z,9.70
2019-05-13T04:23:47.966Z,9.00
2019-05-13T04:26:18.907Z,9.10
2019-05-13T04:28:52.434Z,8.70
2019-05-13T04:31:22.772Z,8.70
2019-05-13T04:33:53.987Z,7.85
2019-05-13T04:36:24.998Z,8.48
2019-05-13T04:38:55.650Z,8.95
2019-05-13T04:41:26.465Z,9.40
2019-05-13T04:43:57.471Z,8.65
2019-05-13T04:46:28.548Z,8.70
2019-05-13T04:49:02.002Z,8.38
2019-05-13T04:51:32.926Z,8.80
2019-05-13T04:54:03.696Z,9.88
2019-05-13T04:56:34.667Z,8.63
2019-05-13T04:59:05.619Z,9.55
2019-05-13T05:01:40.170Z,7.67
2019-05-13T05:04:22.345Z,7.28
2019-05-13T05:06:48.158Z,8.38
2019-05-13T05:09:22.550Z,8.23
2019-05-13T05:11:56.458Z,8.73
2019-05-13T05:17:03.197Z,7.75
2019-05-13T05:19:35.966Z,7.50
2019-05-13T05:22:09.264Z,7.35
2019-05-13T05:24:42.746Z,8.10
2019-05-13T05:27:16.250Z,7.17
2019-05-13T05:29:51.513Z,8.38
2019-05-13T05:32:24.217Z,8.35
2019-05-13T05:34:57.673Z,7.50
2019-05-13T05:37:31.248Z,7.83
2019-05-13T05:42:32.794Z,7.20
2019-05-13T05:45:03.668Z,6.30
2019-05-13T05:47:34.540Z,6.62
2019-05-13T05:50:05.208Z,6.83
2019-05-13T05:52:36.087Z,7.37
2019-05-13T05:55:08.288Z,9.48
2019-05-13T05:57:41.966Z,9.65
2019-05-13T06:00:13.029Z,10.95
2019-05-13T06:02:45.675Z,9.50
2019-05-13T06:05:16.512Z,9.80
2019-05-13T06:07:47.420Z,8.50
2019-05-13T06:10:18.103Z,9.78
2019-05-13T06:12:52.817Z,9.65
2019-05-13T06:15:23.720Z,9.40
2019-05-13T06:17:54.586Z,9.10
2019-05-13T06:20:25.500Z,9.03
2019-05-13T06:22:56.360Z,9.68
2019-05-13T06:25:27.265Z,9.78
2019-05-13T06:27:58.022Z,9.88
2019-05-13T06:30:28.990Z,10.03
2019-05-13T06:33:01.593Z,9.50
2019-05-13T06:35:32.500Z,12.35
2019-05-13T06:38:03.414Z,11.95
2019-05-13T06:40:34.398Z,11.45
2019-05-13T06:43:05.208Z,11.73
2019-05-13T06:45:36.028Z,11.60
2019-05-13T06:48:06.696Z,11.48
2019-05-13T06:50:37.708Z,12.00
2019-05-13T06:53:08.699Z,12.00
2019-05-13T06:55:41.635Z,11.90
2019-05-13T06:58:11.905Z,10.78
2019-05-13T07:00:42.911Z,10.60
2019-05-13T07:03:13.895Z,9.90
2019-05-13T07:05:44.976Z,10.20
2019-05-13T07:08:15.798Z,11.22
2019-05-13T07:10:46.511Z,10.50
2019-05-13T07:13:17.258Z,9.98
2019-05-13T07:15:47.974Z,10.65
2019-05-13T07:18:18.649Z,9.73
2019-05-13T07:20:49.303Z,10.10
2019-05-13T07:23:22.257Z,10.30
2019-05-13T07:25:52.643Z,11.75
2019-05-13T07:28:23.828Z,16.35
2019-05-13T07:30:54.719Z,15.32
2019-05-13T07:33:25.605Z,13.48
2019-05-13T07:35:58.494Z,12.23
2019-05-13T07:38:28.917Z,10.63
2019-05-13T07:41:02.217Z,9.48
2019-05-13T07:43:33.169Z,10.55
2019-05-13T07:46:03.978Z,9.83
2019-05-13T07:48:34.878Z,9.25
2019-05-13T07:51:05.756Z,8.38
2019-05-13T07:53:36.731Z,9.10
2019-05-13T07:56:07.498Z,8.60
2019-05-13T07:58:38.506Z,7.83
2019-05-13T08:01:11.988Z,7.95
2019-05-13T08:03:42.273Z,8.05
2019-05-13T08:06:13.448Z,6.50
2019-05-13T08:08:44.458Z,6.03
2019-05-13T08:11:15.316Z,6.08
2019-05-13T08:13:46.338Z,5.83
2019-05-13T08:16:18.021Z,5.55
2019-05-13T08:18:52.154Z,5.15
2019-05-13T08:21:22.465Z,5.65
2019-05-13T08:23:53.334Z,6.42
2019-05-13T08:26:24.133Z,5.00
2019-05-13T08:29:01.596Z,6.00
2019-05-13T08:31:27.174Z,6.62
2019-05-13T08:33:58.277Z,5.95
2019-05-13T08:36:29.236Z,5.87
2019-05-13T08:39:02.395Z,5.90
2019-05-13T08:41:32.420Z,4.83
2019-05-13T08:44:03.277Z,5.20
2019-05-13T08:46:35.021Z,5.20
2019-05-13T08:49:05.939Z,4.85
2019-05-13T08:51:36.729Z,4.87
2019-05-13T08:54:07.551Z,6.03
2019-05-13T08:56:41.807Z,5.87
2019-05-13T08:59:12.852Z,4.95
2019-05-13T09:01:43.589Z,4.72
2019-05-13T09:04:15.688Z,5.37
2019-05-13T09:06:46.690Z,4.28
2019-05-13T09:09:17.689Z,6.03
2019-05-13T09:11:48.671Z,6.15
2019-05-13T09:14:21.749Z,6.05
2019-05-13T09:16:52.579Z,6.97
2019-05-13T09:19:23.539Z,6.37
2019-05-13T09:21:54.306Z,6.80
2019-05-13T09:24:32.988Z,7.00
2019-05-13T09:26:57.317Z,7.35
2019-05-13T09:29:28.086Z,6.62
2019-05-13T09:32:03.370Z,5.75
2019-05-13T09:34:32.965Z,6.50
2019-05-13T09:37:03.988Z,6.92
2019-05-13T09:39:34.771Z,7.17
2019-05-13T09:42:06.915Z,6.30
2019-05-13T09:44:37.703Z,6.85
2019-05-13T09:47:08.564Z,7.53
2019-05-13T09:49:41.850Z,7.17
2019-05-13T09:52:12.068Z,6.97
2019-05-13T09:54:42.999Z,5.87
2019-05-13T09:57:13.899Z,6.00
2019-05-13T09:59:47.672Z,7.55
2019-05-13T10:04:48.375Z,7.28
2019-05-13T10:07:19.032Z,8.38
2019-05-13T10:09:51.794Z,8.03
2019-05-13T10:12:24.991Z,8.23
2019-05-13T10:17:25.501Z,7.78
2019-05-13T10:19:56.250Z,7.97
2019-05-13T10:22:27.402Z,7.37
2019-05-13T10:24:58.422Z,8.93
2019-05-13T10:27:29.105Z,7.67
2019-05-13T10:30:06.745Z,7.25
2019-05-13T10:32:37.882Z,7.12
2019-05-13T10:35:09.115Z,7.37
2019-05-13T10:37:41.801Z,8.35
2019-05-13T10:40:12.287Z,8.48
2019-05-13T10:42:43.406Z,8.63
2019-05-13T10:45:14.362Z,7.05
2019-05-13T10:47:45.220Z,8.73
2019-05-13T10:50:15.982Z,9.05
2019-05-13T10:52:46.744Z,9.78
2019-05-13T10:55:21.444Z,16.70
2019-05-13T10:57:51.352Z,12.23
2019-05-13T11:00:24.696Z,11.60
2019-05-13T11:02:55.788Z,10.88
2019-05-13T11:05:26.473Z,11.75
2019-05-13T11:07:57.800Z,11.78
2019-05-13T11:10:32.557Z,11.93
2019-05-13T11:13:06.171Z,12.85
2019-05-13T11:15:40.831Z,12.68
2019-05-13T11:18:14.181Z,13.78
2019-05-13T11:20:41.935Z,12.05
2019-05-13T11:23:13.018Z,11.38
2019-05-13T11:25:44.205Z,12.25
2019-05-13T11:28:14.946Z,12.60
2019-05-13T11:30:45.837Z,11.95
2019-05-13T11:33:17.017Z,11.40
2019-05-13T11:35:48.020Z,12.25
2019-05-13T11:38:21.339Z,11.30
2019-05-13T11:40:52.468Z,12.25
2019-05-13T11:43:27.874Z,11.33
2019-05-13T11:45:55.547Z,11.53
2019-05-13T11:48:26.603Z,11.95
2019-05-13T11:50:57.326Z,13.10
2019-05-13T11:53:32.638Z,13.70
2019-05-13T11:56:03.649Z,13.50
2019-05-13T11:58:33.487Z,12.85
2019-05-13T12:01:05.533Z,13.10
2019-05-13T12:03:36.301Z,12.50
2019-05-13T12:06:07.292Z,13.58
2019-05-13T12:08:38.110Z,12.37
2019-05-13T12:11:08.985Z,13.18
2019-05-13T12:13:44.693Z,13.13
2019-05-13T12:16:16.187Z,13.00
2019-05-13T12:18:47.123Z,13.22
2019-05-13T12:21:18.059Z,13.78
2019-05-13T12:23:52.453Z,13.93
2019-05-13T12:26:23.780Z,13.58
2019-05-13T12:28:54.371Z,13.95
2019-05-13T12:31:25.389Z,13.45
2019-05-13T12:33:56.160Z,14.98
2019-05-13T12:36:27.060Z,15.15
2019-05-13T12:38:57.736Z,13.98
2019-05-13T12:41:28.518Z,15.25
2019-05-13T12:44:01.605Z,14.80
2019-05-13T12:46:31.263Z,14.95
2019-05-13T12:49:03.870Z,15.20
2019-05-13T12:51:34.251Z,15.10
2019-05-13T12:54:05.214Z,14.33
2019-05-13T12:56:36.426Z,15.25
2019-05-13T12:59:07.320Z,16.15
2019-05-13T13:01:38.130Z,15.68
2019-05-13T13:04:09.149Z,15.30
2019-05-13T13:06:44.665Z,15.48
2019-05-13T13:09:13.004Z,14.23
2019-05-13T13:11:44.163Z,14.00
2019-05-13T13:14:17.033Z,13.38
2019-05-13T13:16:48.337Z,13.75
2019-05-13T13:19:21.860Z,13.85
2019-05-13T13:21:53.507Z,12.82
2019-05-13T13:26:55.668Z,11.35
2019-05-13T13:29:26.538Z,11.75
2019-05-13T13:31:57.702Z,12.25
2019-05-13T13:34:28.383Z,11.78
2019-05-13T13:36:59.159Z,12.90
2019-05-13T13:39:31.927Z,13.20
2019-05-13T13:42:05.410Z,13.58
2019-05-13T13:44:35.166Z,14.75
2019-05-13T13:47:14.259Z,13.45
2019-05-13T13:49:43.587Z,15.13
2019-05-13T13:52:16.022Z,13.70
2019-05-13T13:54:45.796Z,14.80
2019-05-13T13:57:17.121Z,15.15
2019-05-13T14:00:19.170Z,14.60
2019-05-13T14:02:23.966Z,13.80
2019-05-13T14:04:54.153Z,12.98
2019-05-13T14:06:55.935Z,12.10
2019-05-13T14:07:35.104Z,12.18
2019-05-13T14:09:56.401Z,13.05
2019-05-13T14:12:27.273Z,14.18
2019-05-13T14:14:58.711Z,13.22
2019-05-13T14:17:31.264Z,12.70
2019-05-13T14:20:01.841Z,13.20
2019-05-13T14:22:32.711Z,12.18
2019-05-13T14:25:03.610Z,9.45
2019-05-13T14:27:34.586Z,6.10
2019-05-13T14:30:07.676Z,5.25
2019-05-13T14:32:38.707Z,5.12
2019-05-13T14:35:12.006Z,4.10
2019-05-13T14:37:42.047Z,4.65
2019-05-13T14:40:13.037Z,5.58
2019-05-13T14:42:43.806Z,4.33
2019-05-13T14:45:14.826Z,5.42
2019-05-13T14:47:45.949Z,4.55
2019-05-13T14:50:18.060Z,4.12
2019-05-13T14:52:48.866Z,4.20
2019-05-13T14:55:21.470Z,3.77
2019-05-13T14:57:52.533Z,4.05
2019-05-13T15:00:23.716Z,3.65
2019-05-13T15:02:54.610Z,3.70
2019-05-13T15:05:25.590Z,4.08
2019-05-13T15:07:56.570Z,3.15
2019-05-13T15:10:27.356Z,3.22
2019-05-13T15:12:58.466Z,3.70
2019-05-13T15:15:31.504Z,3.27
2019-05-13T15:18:01.653Z,3.70
2019-05-13T15:20:33.148Z,3.58
2019-05-13T15:23:04.196Z,4.05
2019-05-13T15:25:35.239Z,3.72
2019-05-13T15:28:06.298Z,3.42
2019-05-13T15:30:37.015Z,3.58
2019-05-13T15:33:07.811Z,3.33
2019-05-13T15:35:38.509Z,3.10
2019-05-13T15:38:09.281Z,3.02
2019-05-13T15:40:41.504Z,3.58
2019-05-13T15:43:12.584Z,3.00
2019-05-13T15:45:45.276Z,2.95
2019-05-13T15:48:15.792Z,3.08
2019-05-13T15:50:46.833Z,2.92
2019-05-13T15:53:17.690Z,2.40
2019-05-13T15:55:51.782Z,2.60
2019-05-13T15:58:38.037Z,2.45
2019-05-13T16:00:55.573Z,1.90
2019-05-13T16:03:26.864Z,2.25
2019-05-13T16:06:01.848Z,2.05
2019-05-13T16:08:33.014Z,2.10
2019-05-13T16:11:04.483Z,2.20
2019-05-13T16:13:35.625Z,1.52
2019-05-13T16:16:06.633Z,2.02
2019-05-13T16:18:37.497Z,1.92
2019-05-13T16:21:08.375Z,2.22
2019-05-13T16:23:39.073Z,1.72
2019-05-13T16:26:09.877Z,1.65
2019-05-13T16:28:42.072Z,1.82
2019-05-13T16:31:12.811Z,2.00
2019-05-13T16:33:43.517Z,1.90
2019-05-13T16:36:14.301Z,1.62
2019-05-13T16:38:45.259Z,1.95
2019-05-13T16:41:16.380Z,1.80
2019-05-13T16:43:47.266Z,1.92
2019-05-13T16:46:18.015Z,1.70
2019-05-13T16:48:48.812Z,2.10
2019-05-13T16:51:21.584Z,1.45
2019-05-13T16:53:52.294Z,1.30
2019-05-13T16:56:29.517Z,2.00
2019-05-13T16:58:55.761Z,1.50
2019-05-13T17:01:26.735Z,1.90
2019-05-13T17:03:57.701Z,1.98
2019-05-13T17:06:28.726Z,1.90
2019-05-13T17:09:01.807Z,1.82
2019-05-13T17:11:32.147Z,2.25
2019-05-13T17:14:05.605Z,1.80
2019-05-13T17:16:35.600Z,2.00
2019-05-13T17:19:06.584Z,2.27
2019-05-13T17:21:37.684Z,1.55
2019-05-13T17:24:08.560Z,2.22
2019-05-13T17:26:41.602Z,1.65
2019-05-13T17:29:12.137Z,1.95
2019-05-13T17:31:43.324Z,2.02
2019-05-13T17:34:13.975Z,2.45
2019-05-13T17:36:44.641Z,2.52
2019-05-13T17:39:15.538Z,2.02
2019-05-13T17:41:46.460Z,2.02
2019-05-13T17:44:17.302Z,2.20
2019-05-13T17:46:47.978Z,2.02
2019-05-13T17:49:18.840Z,2.40
2019-05-13T17:51:51.523Z,1.80
2019-05-13T17:54:22.149Z,1.98
2019-05-13T17:56:53.325Z,2.08
2019-05-13T17:59:24.211Z,2.50
2019-05-13T18:01:55.105Z,2.25
2019-05-13T18:04:26.044Z,2.00
2019-05-13T18:06:58.715Z,2.12
2019-05-13T18:09:31.539Z,2.10
2019-05-13T18:12:02.422Z,2.08
2019-05-13T18:14:33.487Z,2.60
2019-05-13T18:17:04.458Z,1.92
2019-05-13T18:19:35.346Z,2.15
2019-05-13T18:22:06.180Z,2.60
2019-05-13T18:24:37.025Z,2.30
2019-05-13T18:27:07.974Z,2.17
2019-05-13T18:29:38.762Z,2.00
2019-05-13T18:32:12.151Z,2.10
2019-05-13T18:34:41.662Z,2.10
2019-05-13T18:37:12.546Z,2.40
2019-05-13T18:39:43.549Z,2.50
2019-05-13T18:42:14.416Z,2.45
2019-05-13T18:44:45.305Z,2.40
2019-05-13T18:47:15.996Z,2.30
2019-05-13T18:49:46.763Z,2.77
2019-05-13T18:52:18.019Z,2.80
2019-05-13T18:54:48.702Z,2.40
2019-05-13T18:57:21.187Z,3.05
2019-05-13T18:59:52.021Z,2.62
2019-05-13T19:02:22.891Z,2.42
2019-05-13T19:04:53.586Z,2.65
2019-05-13T19:07:24.306Z,3.00
2019-05-13T19:09:55.311Z,3.85
2019-05-13T19:12:25.956Z,3.33
2019-05-13T19:14:56.741Z,2.67
2019-05-13T19:17:27.415Z,2.40
2019-05-13T19:19:58.075Z,2.90
2019-05-13T19:22:28.788Z,2.72
2019-05-13T19:25:01.123Z,3.02
2019-05-13T19:27:32.052Z,2.95
2019-05-13T19:30:03.008Z,3.67
2019-05-13T19:32:34.016Z,3.80
2019-05-13T19:35:05.128Z,4.17
2019-05-13T19:37:35.778Z,3.65
2019-05-13T19:40:07.972Z,3.60
2019-05-13T19:42:38.660Z,3.58
2019-05-13T19:45:09.366Z,4.30
2019-05-13T19:47:41.801Z,3.90
2019-05-13T19:50:12.535Z,3.67
2019-05-13T19:52:43.388Z,3.70
2019-05-13T19:55:14.097Z,3.55
2019-05-13T19:57:44.935Z,3.65
2019-05-13T20:00:16.243Z,3.80
2019-05-13T20:02:47.103Z,3.12
2019-05-13T20:05:20.389Z,4.05
2019-05-13T20:07:52.180Z,3.90
2019-05-13T20:10:22.297Z,3.65
2019-05-13T20:12:53.349Z,3.45
2019-05-13T20:15:24.397Z,4.17
2019-05-13T20:17:55.290Z,3.45
2019-05-13T20:20:26.065Z,3.35
2019-05-13T20:22:57.085Z,3.52
2019-05-13T20:25:28.388Z,3.77
2019-05-13T20:27:59.331Z,4.33
2019-05-13T20:30:30.347Z,4.17
2019-05-13T20:33:02.385Z,3.65
2019-05-13T20:35:33.335Z,3.87
2019-05-13T20:38:04.253Z,4.30
2019-05-13T20:40:34.928Z,4.08
2019-05-13T20:43:05.616Z,3.60
2019-05-13T20:45:36.730Z,4.58
2019-05-13T20:48:07.543Z,3.87
2019-05-13T20:50:38.433Z,4.05
2019-05-13T20:53:11.362Z,3.00
2019-05-13T20:55:41.693Z,3.95
2019-05-13T20:58:12.882Z,3.37
2019-05-13T21:00:43.647Z,3.47
2019-05-13T21:03:14.342Z,3.15
2019-05-13T21:05:44.995Z,3.40
2019-05-13T21:08:15.674Z,3.80
2019-05-13T21:10:46.399Z,3.75
2019-05-13T21:13:17.029Z,4.30
2019-05-13T21:15:47.688Z,4.58
2019-05-13T21:18:18.374Z,5.25
2019-05-13T21:20:49.011Z,5.10
2019-05-13T21:23:21.603Z,5.20
2019-05-13T21:25:51.723Z,5.47
2019-05-13T21:28:22.681Z,5.08
2019-05-13T21:30:53.322Z,4.72
2019-05-13T21:33:24.046Z,4.53
2019-05-13T21:35:54.716Z,4.35
2019-05-13T21:38:25.413Z,4.80
2019-05-13T21:40:56.442Z,4.30
2019-05-13T21:43:27.272Z,4.20
2019-05-13T21:45:58.123Z,3.92
2019-05-13T21:48:29.003Z,4.28
2019-05-13T21:50:59.965Z,4.60
2019-05-13T21:53:32.613Z,4.62
2019-05-13T21:56:03.342Z,3.85
2019-05-13T21:58:34.384Z,4.37
2019-05-13T22:01:05.086Z,4.75
2019-05-13T22:03:35.869Z,5.05
2019-05-13T22:06:06.722Z,4.58
2019-05-13T22:08:37.489Z,4.70
2019-05-13T22:11:08.481Z,4.97
2019-05-13T22:13:39.198Z,4.03
2019-05-13T22:16:10.057Z,4.92
2019-05-13T22:18:41.756Z,4.58
2019-05-13T22:21:12.912Z,5.22
2019-05-13T22:23:43.843Z,5.37
2019-05-13T22:26:14.726Z,5.90
2019-05-13T22:28:45.726Z,4.55
2019-05-13T22:31:16.567Z,5.37
2019-05-13T22:33:47.449Z,4.92
2019-05-13T22:36:18.450Z,5.58
2019-05-13T22:38:51.478Z,5.65
2019-05-13T22:41:22.249Z,5.72
2019-05-13T22:43:58.458Z,5.50
2019-05-13T22:46:25.353Z,5.72
2019-05-13T22:48:56.047Z,5.17
2019-05-13T22:51:26.708Z,5.10
2019-05-13T22:53:57.384Z,6.45
2019-05-13T22:56:28.050Z,11.05
2019-05-13T22:58:58.718Z,11.53
2019-05-13T23:01:29.417Z,9.40
2019-05-13T23:04:02.069Z,7.62
2019-05-13T23:06:32.309Z,7.15
2019-05-13T23:09:02.987Z,7.28
2019-05-13T23:11:33.641Z,7.65
2019-05-13T23:14:09.674Z,10.55
2019-05-13T23:16:36.418Z,9.63
2019-05-13T23:19:07.083Z,9.48
2019-05-13T23:21:37.761Z,13.05
2019-05-13T23:24:08.733Z,11.38
2019-05-13T23:26:39.437Z,11.20
2019-05-13T23:29:10.328Z,11.08
2019-05-13T23:31:41.601Z,14.43
2019-05-13T23:34:12.467Z,16.20
2019-05-13T23:36:43.355Z,9.85
2019-05-13T23:39:14.363Z,8.23
2019-05-13T23:41:45.072Z,7.62
2019-05-13T23:44:24.924Z,8.35
2019-05-13T23:46:48.048Z,8.38
2019-05-13T23:49:20.926Z,7.70
2019-05-13T23:51:52.071Z,7.47
2019-05-13T23:54:23.266Z,9.18
2019-05-13T23:56:54.068Z,8.55
2019-05-13T23:59:24.982Z,9.18
